createdAt,value
2022-08-16T00:01:41.046Z,98874.56
2022-08-16T00:04:09.487Z,98864.16
2022-08-16T00:06:39.345Z,98877.59
2022-08-16T00:09:06.847Z,98877.28
2022-08-16T00:11:34.311Z,98885.25
2022-08-16T00:14:02.356Z,98883.34
2022-08-16T00:17:01.536Z,98882.13
2022-08-16T00:19:24.737Z,98889.13
2022-08-16T00:22:01.658Z,98878.47
2022-08-16T00:24:34.560Z,98882.81
2022-08-16T00:27:02.364Z,98885.38
2022-08-16T00:29:30.068Z,98887.97
2022-08-16T00:32:00.570Z,98896.06
2022-08-16T00:34:43.419Z,98887.91
2022-08-16T00:37:24.341Z,98877.41
2022-08-16T00:39:57.123Z,98888.72
2022-08-16T00:42:30.096Z,98891.25
2022-08-16T00:45:08.033Z,98889.44
2022-08-16T00:47:37.138Z,98893.19
2022-08-16T00:50:05.153Z,98889.44
2022-08-16T00:52:45.867Z,98886.28
2022-08-16T00:55:19.231Z,98892.84
2022-08-16T00:57:59.841Z,98892.75
2022-08-16T01:00:29.743Z,98897.25
2022-08-16T01:02:58.721Z,98897.97
2022-08-16T01:05:25.902Z,98893.97
2022-08-16T01:07:54.200Z,98896.31
2022-08-16T01:10:31.968Z,98897.25
2022-08-16T01:13:21.460Z,98898.56
2022-08-16T01:16:02.919Z,98906.16
2022-08-16T01:18:40.208Z,98906.97
2022-08-16T01:21:16.194Z,98904.84
2022-08-16T01:24:02.105Z,98904.19
2022-08-16T01:26:33.709Z,98893.69
2022-08-16T01:29:04.937Z,98900.84
2022-08-16T01:31:32.833Z,98898.47
2022-08-16T01:34:07.085Z,98904.97
2022-08-16T01:36:34.650Z,98901.94
2022-08-16T01:39:07.994Z,98897.09
2022-08-16T01:41:42.228Z,98896.78
2022-08-16T01:44:11.622Z,98898.56
2022-08-16T01:46:48.098Z,98899.94
2022-08-16T01:49:18.846Z,98897.09
2022-08-16T01:51:56.719Z,98901.56
2022-08-16T01:54:30.861Z,98898.84
2022-08-16T01:56:59.479Z,98900.88
2022-08-16T01:59:27.219Z,98900.56
2022-08-16T02:02:00.091Z,98896.87
2022-08-16T02:04:47.959Z,98897.00
2022-08-16T02:07:18.335Z,98895.66
2022-08-16T02:09:57.435Z,98901.69
2022-08-16T02:12:49.707Z,98907.75
2022-08-16T02:15:18.343Z,98902.97
2022-08-16T02:17:56.860Z,98907.41
2022-08-16T02:20:26.226Z,98899.59
2022-08-16T02:22:56.285Z,98882.56
2022-08-16T02:25:23.884Z,98894.03
2022-08-16T02:27:51.679Z,98889.22
2022-08-16T02:30:36.960Z,98890.34
2022-08-16T02:33:09.948Z,98892.50
2022-08-16T02:35:54.296Z,98893.41
2022-08-16T02:38:26.470Z,98893.69
2022-08-16T02:40:54.770Z,98898.47
2022-08-16T02:43:26.730Z,98891.06
2022-08-16T02:45:56.462Z,98894.47
2022-08-16T02:48:29.134Z,98892.38
2022-08-16T02:51:06.359Z,98885.81
2022-08-16T02:53:43.442Z,98885.66
2022-08-16T02:56:15.077Z,98879.94
2022-08-16T02:58:44.021Z,98884.97
2022-08-16T03:01:24.112Z,98889.06
2022-08-16T03:04:39.696Z,98891.84
2022-08-16T03:06:48.803Z,98892.69
2022-08-16T03:09:18.429Z,98892.59
2022-08-16T03:11:47.607Z,98892.69
2022-08-16T03:14:21.176Z,98898.03
2022-08-16T03:16:59.159Z,98891.41
2022-08-16T03:19:46.882Z,98892.75
2022-08-16T03:22:19.156Z,98892.03
2022-08-16T03:25:01.613Z,98894.00
2022-08-16T03:27:30.784Z,98905.88
2022-08-16T03:30:16.637Z,98911.84
2022-08-16T03:32:47.170Z,98908.72
2022-08-16T03:35:17.626Z,98912.97
2022-08-16T03:38:01.935Z,98923.72
2022-08-16T03:40:33.478Z,98920.75
2022-08-16T03:43:20.813Z,98927.53
2022-08-16T03:45:53.644Z,98935.09
2022-08-16T03:48:36.551Z,98929.50
2022-08-16T03:51:09.328Z,98927.37
2022-08-16T03:53:37.361Z,98928.72
2022-08-16T03:56:07.591Z,98924.78
2022-08-16T03:58:36.944Z,98930.66
2022-08-16T04:01:05.726Z,98937.09
2022-08-16T04:03:34.145Z,98938.75
2022-08-16T04:06:03.892Z,98934.56
2022-08-16T04:08:31.689Z,98938.44
2022-08-16T04:11:03.648Z,98939.13
2022-08-16T04:13:59.456Z,98938.72
2022-08-16T04:16:26.495Z,98940.84
2022-08-16T04:19:02.603Z,98939.22
2022-08-16T04:21:32.294Z,98948.38
2022-08-16T04:24:00.415Z,98946.25
2022-08-16T04:26:30.887Z,98953.91
2022-08-16T04:29:16.851Z,98950.88
2022-08-16T04:31:56.859Z,98952.81
2022-08-16T04:34:27.314Z,98946.50
2022-08-16T04:36:54.989Z,98956.13
2022-08-16T04:39:24.385Z,98946.88
2022-08-16T04:42:10.932Z,98944.34
2022-08-16T04:44:54.996Z,98946.97
2022-08-16T04:47:25.606Z,98950.19
2022-08-16T04:50:02.000Z,98961.91
2022-08-16T04:52:35.216Z,98967.56
2022-08-16T04:55:15.335Z,98958.88
2022-08-16T04:57:43.456Z,98961.91
2022-08-16T05:00:32.271Z,98956.50
2022-08-16T05:03:07.436Z,98963.13
2022-08-16T05:05:44.821Z,98963.84
2022-08-16T05:08:29.232Z,98965.28
2022-08-16T05:11:03.513Z,98964.75
2022-08-16T05:13:35.162Z,98967.56
2022-08-16T05:16:20.175Z,98975.88
2022-08-16T05:18:52.041Z,98979.13
2022-08-16T05:21:20.871Z,98994.19
2022-08-16T05:23:51.831Z,98991.44
2022-08-16T05:26:24.711Z,98995.16
2022-08-16T05:28:59.281Z,99000.47
2022-08-16T05:31:29.563Z,98993.25
2022-08-16T05:33:59.207Z,99000.06
2022-08-16T05:36:34.230Z,98990.78
2022-08-16T05:39:08.689Z,98994.97
2022-08-16T05:41:45.326Z,98997.31
2022-08-16T05:44:23.122Z,98998.91
2022-08-16T05:46:52.811Z,98994.78
2022-08-16T05:49:22.360Z,99002.09
2022-08-16T05:51:50.848Z,99010.69
2022-08-16T05:54:24.963Z,98994.84
2022-08-16T05:56:54.446Z,98997.75
2022-08-16T05:59:23.157Z,99002.00
2022-08-16T06:01:52.088Z,99001.38
2022-08-16T06:04:35.003Z,98997.66
2022-08-16T06:07:09.052Z,98998.44
2022-08-16T06:09:52.631Z,99005.38
2022-08-16T06:12:28.224Z,99003.84
2022-08-16T06:14:59.328Z,99002.34
2022-08-16T06:17:41.203Z,98993.69
2022-08-16T06:20:14.349Z,98990.22
2022-08-16T06:22:44.650Z,98995.87
2022-08-16T06:25:15.287Z,98996.06
2022-08-16T06:27:57.149Z,98985.59
2022-08-16T06:30:28.664Z,98989.53
2022-08-16T06:32:57.813Z,98984.56
2022-08-16T06:35:25.864Z,98981.31
2022-08-16T06:38:07.783Z,98988.72
2022-08-16T06:40:55.023Z,98971.22
2022-08-16T06:43:27.578Z,98973.69
2022-08-16T06:45:56.877Z,98963.97
2022-08-16T06:48:32.712Z,98958.75
2022-08-16T06:51:09.790Z,98953.59
2022-08-16T06:53:37.381Z,98958.66
2022-08-16T06:56:14.298Z,98946.66
2022-08-16T06:58:52.536Z,98958.84
2022-08-16T07:01:26.289Z,98962.53
2022-08-16T07:04:10.497Z,98967.91
2022-08-16T07:06:43.128Z,98964.59
2022-08-16T07:09:12.264Z,98964.34
2022-08-16T07:11:47.521Z,98984.94
2022-08-16T07:14:25.217Z,98986.53
2022-08-16T07:16:55.852Z,98993.44
2022-08-16T07:20:01.377Z,98994.16
2022-08-16T07:22:37.345Z,99000.38
2022-08-16T07:25:01.384Z,99010.87
2022-08-16T07:27:29.011Z,99021.12
2022-08-16T07:30:04.685Z,99023.66
2022-08-16T07:32:52.116Z,99028.88
2022-08-16T07:35:21.330Z,99017.81
2022-08-16T07:37:49.960Z,99022.62
2022-08-16T07:40:18.880Z,99030.25
2022-08-16T07:42:52.909Z,99029.62
2022-08-16T07:45:21.181Z,99039.13
2022-08-16T07:47:51.322Z,99035.75
2022-08-16T07:50:55.943Z,99027.50
2022-08-16T07:53:06.456Z,99037.81
2022-08-16T07:55:45.818Z,99029.75
2022-08-16T07:58:18.396Z,99035.56
2022-08-16T08:01:10.153Z,99034.16
2022-08-16T08:03:44.897Z,99029.19
2022-08-16T08:06:19.879Z,99028.53
2022-08-16T08:08:50.852Z,99038.72
2022-08-16T08:11:21.507Z,99036.25
2022-08-16T08:13:50.572Z,99043.56
2022-08-16T08:16:19.899Z,99046.47
2022-08-16T08:18:50.374Z,99040.09
2022-08-16T08:21:27.221Z,99041.25
2022-08-16T08:23:57.673Z,99050.59
2022-08-16T08:26:25.285Z,99046.75
2022-08-16T08:28:52.727Z,99056.56
2022-08-16T08:31:21.924Z,99052.72
2022-08-16T08:33:51.587Z,99059.97
2022-08-16T08:36:24.913Z,99057.75
2022-08-16T08:39:12.898Z,99060.53
2022-08-16T08:41:41.600Z,99057.94
2022-08-16T08:44:27.977Z,99056.37
2022-08-16T08:47:03.250Z,99052.78
2022-08-16T08:49:50.535Z,99046.09
2022-08-16T08:52:47.792Z,99046.25
2022-08-16T08:55:09.245Z,99041.13
2022-08-16T08:57:40.997Z,99038.84
2022-08-16T09:00:13.854Z,99038.66
2022-08-16T09:02:43.216Z,99036.94
2022-08-16T09:05:14.841Z,99043.97
2022-08-16T09:07:54.634Z,99041.69
2022-08-16T09:10:30.137Z,99042.34
2022-08-16T09:12:58.339Z,99040.47
2022-08-16T09:15:32.553Z,99034.94
2022-08-16T09:18:02.113Z,99032.19
2022-08-16T09:20:58.665Z,99035.31
2022-08-16T09:23:28.235Z,99026.91
2022-08-16T09:25:55.513Z,99021.56
2022-08-16T09:29:13.516Z,99019.13
2022-08-16T09:31:14.619Z,99017.09
2022-08-16T09:33:42.957Z,99011.38
2022-08-16T09:36:12.105Z,99013.91
2022-08-16T09:38:59.776Z,99011.50
2022-08-16T09:41:28.079Z,99013.13
2022-08-16T09:44:00.831Z,99014.75
2022-08-16T09:46:48.571Z,99014.84
2022-08-16T09:49:19.880Z,99021.06
2022-08-16T09:51:48.365Z,99008.41
2022-08-16T09:54:20.792Z,99013.62
2022-08-16T09:56:53.318Z,99008.75
2022-08-16T09:59:25.240Z,99004.50
2022-08-16T10:01:53.164Z,99004.50
2022-08-16T10:04:31.565Z,98995.87
2022-08-16T10:07:02.171Z,98995.44
2022-08-16T10:09:44.807Z,98989.84
2022-08-16T10:12:42.536Z,98987.69
2022-08-16T10:15:17.806Z,98988.72
2022-08-16T10:18:01.052Z,98990.41
2022-08-16T10:20:34.691Z,98985.38
2022-08-16T10:23:07.215Z,98987.06
2022-08-16T10:27:18.287Z,98987.31
2022-08-16T10:28:31.877Z,98988.84
2022-08-16T10:31:00.745Z,98993.31
2022-08-16T10:33:33.290Z,98992.03
2022-08-16T10:36:04.000Z,98990.25
2022-08-16T10:38:33.249Z,98994.41
2022-08-16T10:41:05.577Z,98988.75
2022-08-16T10:43:35.701Z,98989.78
2022-08-16T10:46:04.145Z,98985.56
2022-08-16T10:48:52.422Z,98982.53
2022-08-16T10:51:19.572Z,98990.31
2022-08-16T10:53:46.783Z,98990.16
2022-08-16T10:56:52.627Z,98979.87
2022-08-16T11:10:20.641Z,98972.78
2022-08-16T11:12:48.650Z,98971.00
2022-08-16T11:15:20.875Z,98977.28
2022-08-16T11:19:03.900Z,98972.87
2022-08-16T11:20:41.653Z,98975.34
2022-08-16T11:23:11.076Z,98965.00
2022-08-16T11:26:10.362Z,98959.22
2022-08-16T11:31:13.547Z,98968.25
2022-08-16T11:33:56.352Z,98974.53
2022-08-16T11:36:24.966Z,98980.97
2022-08-16T11:38:57.079Z,98978.59
2022-08-16T11:41:29.383Z,98987.56
2022-08-16T11:43:58.455Z,98987.66
